LFPM 071530Z AUTO 14005KT 090V170 CAVOK 23/06 Q1025

Notre flotte, composée de neuf avions de 65 à 285 CV